Central Cty, Kentucky
Current Conditions -  °F | °C
As of 12:15 PM on Wednesday 28 Jan 2015 (Local Time) from K2I0 Reporting Station
Clear Clear  
Wind Chill: 38°   Ceiling: Unl
Heat Index: 43°   Visibility: 10mi
Dew Point: 21°   Wind: 7mph
Humidity: 43%   Direction: 160°SSE
Pressure: 30.29"   Gusts: NA
Location:  37.3137°N, 87.1024°W
Report Text: K2I0 281815Z AUTO 16006KT 10SM CLR 06/M06 A3029 RMK AO2 T00591059
Loading
Personal Weather Stations






























Interactive Weather Map New forecast layout! Learn more

10-Day Weather Forecast

Advertisements
Track Severe Weather on mobile